EmailTwitter


Observations de surface / Royaume-Uni / EGLL (03772)

Régions: Québec | Canada | États-Unis | Europe | France | UK | Ailleurs
Station
Affichage
Infos & localisation pour EGLL (03772) | Aide pour décoder les METARs

Observations prises le 2018-09-21 à 11H50 UTC à LONDON/HEATHROW, UK (EGLL)

Etat du ciel: quelques nuages.

Température: 16.0 Celsius

Point de rosée: 5.0 Celsius

Humidité relative: 48%

Facteur vent: 14.

Facteur vent (rafales): 13.

Vents: Ouest-sud-ouest à 41 km/h ou 22 noeuds.

Rafale du vent: 63 km/h ou 34 noeuds.

Pression au niveau moyen de la mer: 100.90 kilopascals.

Visibilité horizontale: 6.21 milles terrestres ou 9.94 kilomètres.

Observation METAR:

EGLL 211150Z AUTO 25022G34KT 9999 FEW045/// //////CB 16/05 Q1009 TEMPO SHRA=